createdAt,value
2022-12-14T00:00:54.387Z,133.50
2022-12-14T00:03:26.435Z,117.60
2022-12-14T00:05:58.419Z,112.70
2022-12-14T00:08:30.307Z,114.40
2022-12-14T00:11:02.356Z,115.40
2022-12-14T00:13:34.509Z,108.40
2022-12-14T00:16:12.049Z,109.60
2022-12-14T00:18:45.125Z,108.80
2022-12-14T00:21:16.765Z,104.50
2022-12-14T00:23:50.134Z,111.40
2022-12-14T00:26:30.979Z,109.10
2022-12-14T00:29:03.705Z,101.90
2022-12-14T00:31:36.332Z,115.10
2022-12-14T00:34:08.267Z,108.60
2022-12-14T00:36:40.054Z,117.60
2022-12-14T00:39:12.093Z,133.50
2022-12-14T00:41:44.238Z,125.80
2022-12-14T00:44:15.905Z,127.90
2022-12-14T00:46:47.687Z,144.00
2022-12-14T00:49:20.292Z,139.50
2022-12-14T00:51:52.056Z,137.10
2022-12-14T00:54:23.760Z,135.30
2022-12-14T00:56:55.490Z,139.80
2022-12-14T00:59:27.663Z,136.70
2022-12-14T01:02:01.476Z,138.50
2022-12-14T01:04:33.336Z,146.50
2022-12-14T01:07:05.143Z,109.90
2022-12-14T01:09:36.862Z,142.90
2022-12-14T01:12:09.026Z,141.30
2022-12-14T01:14:41.125Z,138.10
2022-12-14T01:17:15.042Z,130.20
2022-12-14T01:19:48.946Z,128.00
2022-12-14T01:22:21.270Z,135.60
2022-12-14T01:24:52.887Z,134.60
2022-12-14T01:27:25.015Z,122.20
2022-12-14T01:29:56.671Z,124.20
2022-12-14T01:32:28.468Z,110.70
2022-12-14T01:35:00.303Z,116.70
2022-12-14T01:37:32.355Z,111.10
2022-12-14T01:40:04.311Z,106.50
2022-12-14T01:42:37.611Z,111.10
2022-12-14T01:45:21.463Z,119.90
2022-12-14T01:47:57.342Z,105.20
2022-12-14T01:50:36.701Z,105.20
2022-12-14T01:53:13.636Z,110.20
2022-12-14T01:55:49.117Z,100.10
2022-12-14T01:58:23.315Z,111.20
2022-12-14T02:00:59.693Z,95.40
2022-12-14T02:03:35.651Z,96.00
2022-12-14T02:06:13.249Z,88.90
2022-12-14T02:08:46.680Z,88.50
2022-12-14T02:11:25.044Z,83.60
2022-12-14T02:13:56.692Z,99.70
2022-12-14T02:16:28.566Z,93.90
2022-12-14T02:19:00.240Z,90.80
2022-12-14T02:21:49.866Z,60.20
2022-12-14T02:24:47.399Z,92.00
2022-12-14T02:27:51.686Z,92.70
2022-12-14T02:30:24.421Z,84.70
2022-12-14T02:33:09.928Z,89.80
2022-12-14T02:35:47.788Z,91.20
2022-12-14T02:38:42.978Z,80.80
2022-12-14T02:41:22.736Z,83.10
2022-12-14T02:44:02.787Z,90.10
2022-12-14T02:46:44.076Z,86.00
2022-12-14T02:49:28.977Z,95.60
2022-12-14T02:52:07.399Z,91.60
2022-12-14T02:54:45.877Z,94.50
2022-12-14T02:57:25.074Z,84.30
2022-12-14T02:59:58.584Z,108.10
2022-12-14T03:02:31.843Z,94.30
2022-12-14T03:05:03.687Z,92.40
2022-12-14T03:07:41.505Z,105.20
2022-12-14T03:10:30.702Z,95.50
2022-12-14T03:13:09.181Z,83.10
2022-12-14T03:15:44.066Z,96.80
2022-12-14T03:18:22.582Z,99.40
2022-12-14T03:20:56.428Z,102.90
2022-12-14T03:23:34.444Z,96.20
2022-12-14T03:26:13.216Z,101.20
2022-12-14T03:28:47.785Z,95.50
2022-12-14T03:31:23.181Z,103.10
2022-12-14T03:33:58.093Z,103.60
2022-12-14T03:36:38.323Z,101.50
2022-12-14T03:39:18.027Z,104.50
2022-12-14T03:41:59.562Z,102.30
2022-12-14T03:44:44.731Z,112.90
2022-12-14T03:47:34.165Z,103.80
2022-12-14T03:50:11.802Z,109.20
2022-12-14T03:52:51.827Z,110.30
2022-12-14T03:55:28.314Z,108.00
2022-12-14T03:58:15.575Z,104.70
2022-12-14T04:00:55.809Z,109.90
2022-12-14T04:03:40.824Z,105.50
2022-12-14T04:06:23.763Z,102.30
2022-12-14T04:09:03.068Z,111.10
2022-12-14T04:11:58.757Z,103.20
2022-12-14T04:14:51.801Z,96.30
2022-12-14T04:17:46.802Z,105.30
2022-12-14T04:20:21.907Z,116.00
2022-12-14T04:22:58.879Z,110.40
2022-12-14T04:25:53.204Z,95.50
2022-12-14T04:28:45.799Z,93.90
2022-12-14T04:31:21.175Z,102.60
2022-12-14T04:33:59.339Z,96.60
2022-12-14T04:36:38.817Z,112.40
2022-12-14T04:39:15.173Z,98.20
2022-12-14T04:41:50.783Z,98.70
2022-12-14T04:44:25.951Z,93.00
2022-12-14T04:47:00.626Z,94.60
2022-12-14T04:49:40.749Z,100.00
2022-12-14T04:52:17.360Z,95.20
2022-12-14T04:54:54.661Z,89.30
2022-12-14T04:57:35.006Z,97.10
2022-12-14T05:00:09.101Z,98.00
2022-12-14T05:03:00.899Z,89.50
2022-12-14T05:05:39.179Z,86.00
2022-12-14T05:08:18.606Z,81.80
2022-12-14T05:11:04.736Z,87.60
2022-12-14T05:13:49.158Z,83.30
2022-12-14T05:16:22.751Z,88.90
2022-12-14T05:18:54.812Z,83.00
2022-12-14T05:21:43.922Z,89.50
2022-12-14T05:24:16.075Z,88.10
2022-12-14T05:26:47.841Z,89.70
2022-12-14T05:29:19.782Z,92.00
2022-12-14T05:31:51.772Z,89.60
2022-12-14T05:34:23.920Z,88.10
2022-12-14T05:36:55.680Z,97.20
2022-12-14T05:39:27.786Z,95.20
2022-12-14T05:42:00.815Z,90.00
2022-12-14T05:44:32.967Z,89.30
2022-12-14T05:47:04.899Z,84.60
2022-12-14T05:49:37.174Z,85.80
2022-12-14T05:52:08.964Z,92.80
2022-12-14T05:54:40.660Z,90.90
2022-12-14T05:57:12.920Z,80.60
2022-12-14T05:59:44.835Z,75.80
2022-12-14T06:02:16.724Z,79.70
2022-12-14T06:07:23.105Z,89.00
2022-12-14T06:09:59.264Z,81.80
2022-12-14T06:12:31.381Z,56.20
2022-12-14T06:15:04.370Z,80.70
2022-12-14T06:17:36.244Z,79.60
2022-12-14T06:20:09.293Z,80.30
2022-12-14T06:22:47.243Z,89.80
2022-12-14T06:25:19.592Z,94.40
2022-12-14T06:27:55.572Z,82.10
2022-12-14T06:30:28.669Z,82.10
2022-12-14T06:33:00.490Z,88.80
2022-12-14T06:35:32.238Z,97.20
2022-12-14T06:38:03.912Z,93.90
2022-12-14T06:40:35.715Z,89.70
2022-12-14T06:43:07.653Z,88.30
2022-12-14T06:45:39.680Z,91.50
2022-12-14T06:48:11.476Z,85.10
2022-12-14T06:50:43.885Z,95.50
2022-12-14T06:53:15.962Z,96.00
2022-12-14T06:55:49.317Z,88.20
2022-12-14T06:58:21.221Z,164.80
2022-12-14T07:00:53.359Z,97.90
2022-12-14T07:03:25.532Z,92.40
2022-12-14T07:06:00.179Z,91.60
2022-12-14T07:08:33.380Z,98.90
2022-12-14T07:11:07.103Z,96.00
2022-12-14T07:13:39.484Z,91.00
2022-12-14T07:16:15.424Z,91.00
2022-12-14T07:18:48.286Z,90.10
2022-12-14T07:21:21.704Z,87.70
2022-12-14T07:23:54.218Z,100.10
2022-12-14T07:26:28.112Z,104.30
2022-12-14T07:29:01.199Z,91.80
2022-12-14T07:31:33.364Z,94.10
2022-12-14T07:34:05.895Z,97.90
2022-12-14T07:39:08.786Z,90.00
2022-12-14T07:41:40.622Z,95.60
2022-12-14T07:44:15.054Z,66.40
2022-12-14T07:46:46.825Z,88.90
2022-12-14T07:49:18.711Z,96.60
2022-12-14T07:51:50.503Z,82.30
2022-12-14T07:54:22.295Z,93.40
2022-12-14T07:56:54.134Z,82.90
2022-12-14T07:59:26.608Z,94.50
2022-12-14T08:04:29.179Z,96.80
2022-12-14T08:07:03.817Z,89.00
2022-12-14T08:09:35.539Z,94.80
2022-12-14T08:12:07.395Z,85.10
2022-12-14T08:14:39.116Z,91.10
2022-12-14T08:17:10.887Z,93.90
2022-12-14T08:19:42.632Z,103.50
2022-12-14T08:22:14.962Z,96.10
2022-12-14T08:24:49.636Z,95.90
2022-12-14T08:27:21.894Z,91.50
2022-12-14T08:29:53.949Z,83.70
2022-12-14T08:32:30.965Z,88.40
2022-12-14T08:35:08.928Z,93.80
2022-12-14T08:37:45.759Z,98.30
2022-12-14T08:40:19.141Z,104.00
2022-12-14T08:42:53.396Z,93.30
2022-12-14T08:45:25.252Z,95.10
2022-12-14T08:47:59.613Z,96.70
2022-12-14T08:50:32.202Z,103.40
2022-12-14T08:53:04.062Z,89.20
2022-12-14T08:55:38.784Z,96.00
2022-12-14T08:58:11.342Z,92.30
2022-12-14T09:00:43.424Z,198.20
2022-12-14T09:03:15.602Z,103.30
2022-12-14T09:05:47.478Z,94.80
2022-12-14T09:08:19.411Z,96.10
2022-12-14T09:10:53.147Z,70.50
2022-12-14T09:13:25.098Z,95.30
2022-12-14T09:16:01.653Z,62.00
2022-12-14T09:18:34.410Z,103.80
2022-12-14T09:21:07.095Z,93.70
2022-12-14T09:26:13.953Z,105.80
2022-12-14T09:28:49.536Z,93.80
2022-12-14T09:31:23.798Z,109.50
2022-12-14T09:33:56.916Z,98.10
2022-12-14T09:36:30.138Z,108.90
2022-12-14T09:39:02.208Z,96.60
2022-12-14T09:41:50.762Z,93.90
2022-12-14T09:44:36.833Z,104.80
2022-12-14T09:47:12.651Z,106.90
2022-12-14T09:49:48.147Z,113.00
2022-12-14T09:52:24.789Z,107.30
2022-12-14T09:54:58.155Z,107.10
2022-12-14T09:57:34.534Z,106.20
2022-12-14T10:00:12.850Z,108.30
2022-12-14T10:03:02.740Z,109.90
2022-12-14T10:05:53.197Z,113.90
2022-12-14T10:08:29.520Z,110.80
2022-12-14T10:11:08.372Z,100.90
2022-12-14T10:13:48.590Z,114.40
2022-12-14T10:16:31.946Z,127.50
2022-12-14T10:19:28.755Z,121.60
2022-12-14T10:22:06.831Z,105.30
2022-12-14T10:24:43.476Z,116.60
2022-12-14T10:27:25.627Z,113.50
2022-12-14T10:30:02.408Z,109.10
2022-12-14T10:32:39.002Z,119.70
2022-12-14T10:35:18.540Z,117.70
2022-12-14T10:37:59.340Z,117.80
2022-12-14T10:40:34.705Z,116.50
2022-12-14T10:43:23.557Z,111.20
2022-12-14T10:46:02.099Z,113.90
2022-12-14T10:48:47.247Z,117.40
2022-12-14T10:51:26.763Z,110.70
2022-12-14T10:54:04.461Z,101.50
2022-12-14T10:56:40.209Z,114.30
2022-12-14T10:59:41.366Z,112.00
2022-12-14T11:02:19.825Z,114.80
2022-12-14T11:04:55.556Z,123.70
2022-12-14T11:07:39.022Z,117.20
2022-12-14T11:10:19.428Z,114.20
2022-12-14T11:13:03.628Z,120.50
2022-12-14T11:15:38.050Z,116.50
2022-12-14T11:18:32.123Z,126.90
2022-12-14T11:21:06.400Z,117.80
2022-12-14T11:23:41.482Z,128.80
2022-12-14T11:26:17.584Z,121.40
2022-12-14T11:28:53.087Z,124.40
2022-12-14T11:31:29.944Z,124.50
2022-12-14T11:34:03.454Z,130.50
2022-12-14T11:36:37.847Z,125.30
2022-12-14T11:39:22.515Z,126.50
2022-12-14T11:42:04.376Z,121.60
2022-12-14T11:44:38.458Z,122.40
2022-12-14T11:47:15.679Z,123.90
2022-12-14T11:49:49.444Z,130.60
2022-12-14T11:52:23.668Z,120.30
2022-12-14T11:55:13.787Z,119.50
2022-12-14T11:57:52.485Z,131.90
2022-12-14T12:00:29.829Z,126.20
2022-12-14T12:03:08.855Z,133.50
2022-12-14T12:05:45.422Z,115.70
2022-12-14T12:08:26.169Z,123.60
2022-12-14T12:11:02.445Z,130.90
2022-12-14T12:13:38.259Z,121.70
2022-12-14T12:16:18.371Z,308.20
2022-12-14T12:18:53.717Z,148.50
2022-12-14T12:21:29.434Z,139.60
2022-12-14T12:24:06.731Z,127.70
2022-12-14T12:26:42.574Z,128.80
2022-12-14T12:29:20.585Z,126.70
2022-12-14T12:32:01.021Z,140.50
2022-12-14T12:34:38.524Z,145.00
2022-12-14T12:37:26.360Z,125.30
2022-12-14T12:40:04.773Z,133.00
2022-12-14T12:42:44.964Z,138.10
2022-12-14T12:45:21.573Z,132.70
2022-12-14T12:48:00.385Z,139.30
2022-12-14T12:50:36.358Z,133.50
2022-12-14T12:53:12.653Z,128.20
2022-12-14T12:55:48.185Z,134.10
2022-12-14T12:58:25.278Z,136.80
2022-12-14T13:01:01.684Z,164.10
2022-12-14T13:03:38.758Z,140.40
2022-12-14T13:06:19.782Z,135.80
2022-12-14T13:08:59.054Z,133.80
2022-12-14T13:11:37.091Z,131.20
2022-12-14T13:14:18.651Z,135.60
2022-12-14T13:16:53.061Z,129.60
2022-12-14T13:22:27.092Z,143.40
2022-12-14T13:25:03.897Z,130.20
2022-12-14T13:28:16.405Z,135.20
2022-12-14T13:31:03.796Z,85.60
2022-12-14T13:33:52.121Z,131.80
2022-12-14T13:36:52.664Z,132.70
2022-12-14T13:40:13.495Z,137.90
2022-12-14T13:42:54.391Z,134.20
2022-12-14T13:45:33.485Z,136.10
2022-12-14T13:48:13.969Z,143.10
2022-12-14T13:50:57.703Z,140.60
2022-12-14T13:53:42.765Z,135.20
2022-12-14T13:56:27.791Z,132.90
2022-12-14T13:59:07.668Z,134.80
2022-12-14T14:01:57.847Z,143.00
2022-12-14T14:04:30.928Z,135.10
2022-12-14T14:07:33.661Z,186.60
2022-12-14T14:10:16.695Z,147.10
2022-12-14T14:12:48.390Z,141.20
2022-12-14T14:15:32.616Z,132.10
2022-12-14T14:18:15.898Z,133.40
2022-12-14T14:20:52.558Z,151.20
2022-12-14T14:23:38.876Z,142.60
2022-12-14T14:26:21.072Z,137.40
2022-12-14T14:29:20.425Z,155.40
2022-12-14T14:32:00.590Z,148.10
2022-12-14T14:34:41.449Z,156.20
2022-12-14T14:37:29.580Z,142.50
2022-12-14T14:40:25.979Z,143.80
2022-12-14T14:43:08.518Z,145.40
2022-12-14T14:45:45.309Z,146.20
2022-12-14T14:48:34.155Z,155.00
2022-12-14T14:51:16.176Z,156.30
2022-12-14T14:53:50.188Z,140.00
2022-12-14T14:56:39.945Z,136.60
2022-12-14T14:59:43.307Z,154.70
2022-12-14T15:02:31.836Z,142.70
2022-12-14T15:05:33.375Z,146.10
2022-12-14T15:07:59.564Z,147.80
2022-12-14T15:10:37.337Z,140.90
2022-12-14T15:13:24.013Z,134.80
2022-12-14T15:15:56.596Z,145.90
2022-12-14T15:18:30.357Z,145.30
2022-12-14T15:21:06.671Z,147.60
2022-12-14T15:23:40.805Z,149.10
2022-12-14T15:26:17.423Z,165.60
2022-12-14T15:28:58.054Z,142.70
2022-12-14T15:31:35.729Z,154.20
2022-12-14T15:34:07.842Z,141.80
2022-12-14T15:36:43.450Z,151.50
2022-12-14T15:39:39.852Z,141.10
2022-12-14T15:42:17.015Z,150.40
2022-12-14T15:44:57.023Z,155.20
2022-12-14T15:47:31.120Z,151.70
2022-12-14T15:53:12.457Z,148.20
2022-12-14T15:58:21.193Z,149.20
2022-12-14T16:00:57.517Z,156.00
2022-12-14T16:03:36.434Z,156.80
2022-12-14T16:06:10.311Z,157.40
2022-12-14T16:08:48.737Z,151.60
2022-12-14T16:11:25.891Z,139.10
2022-12-14T16:13:59.366Z,139.90
2022-12-14T16:16:31.682Z,222.10
2022-12-14T16:19:26.052Z,162.30
2022-12-14T16:22:16.852Z,139.40
2022-12-14T16:25:03.043Z,143.40
2022-12-14T16:27:39.070Z,134.00
2022-12-14T16:30:21.828Z,139.10
2022-12-14T16:33:04.469Z,139.60
2022-12-14T16:35:38.417Z,136.70
2022-12-14T16:38:13.038Z,141.20
2022-12-14T16:40:57.401Z,144.90
2022-12-14T16:43:32.897Z,146.70
2022-12-14T16:46:18.564Z,149.60
2022-12-14T16:49:21.754Z,145.30
2022-12-14T16:52:09.407Z,161.10
2022-12-14T16:54:41.553Z,145.90
2022-12-14T16:57:21.982Z,138.90
2022-12-14T17:00:01.821Z,138.80
2022-12-14T17:02:36.245Z,143.10
2022-12-14T17:05:17.727Z,136.30
2022-12-14T17:07:50.107Z,145.00
2022-12-14T17:12:58.810Z,131.60
2022-12-14T17:15:33.524Z,147.90
2022-12-14T17:18:08.265Z,137.20
2022-12-14T17:20:41.146Z,148.50
2022-12-14T17:23:18.911Z,134.90
2022-12-14T17:25:51.056Z,127.90
2022-12-14T17:28:25.504Z,144.50
2022-12-14T17:31:01.899Z,144.20
2022-12-14T17:33:34.381Z,134.20
2022-12-14T17:36:07.048Z,154.00
2022-12-14T17:41:13.701Z,149.50
2022-12-14T17:43:51.000Z,158.90
2022-12-14T17:46:29.487Z,153.80
2022-12-14T17:49:06.323Z,145.90
2022-12-14T17:51:42.135Z,153.70
2022-12-14T17:54:17.944Z,145.50
2022-12-14T17:56:49.749Z,154.50
2022-12-14T17:59:21.756Z,135.70
2022-12-14T18:01:53.848Z,137.40
2022-12-14T18:04:25.985Z,126.80
2022-12-14T18:06:57.873Z,135.60
2022-12-14T18:09:29.639Z,131.20
2022-12-14T18:12:22.612Z,126.90
2022-12-14T18:14:53.558Z,129.50
2022-12-14T18:17:25.344Z,133.90
2022-12-14T18:19:57.390Z,94.20
2022-12-14T18:22:29.380Z,157.20
2022-12-14T18:25:01.396Z,125.90
2022-12-14T18:27:33.463Z,133.10
2022-12-14T18:30:05.979Z,133.40
2022-12-14T18:32:38.265Z,146.70
2022-12-14T18:35:17.045Z,152.70
2022-12-14T18:37:49.421Z,139.70
2022-12-14T18:40:24.569Z,143.10
2022-12-14T18:42:57.051Z,148.40
2022-12-14T18:45:31.284Z,154.50
2022-12-14T18:48:03.241Z,158.90
2022-12-14T18:50:39.563Z,139.20
2022-12-14T18:53:17.390Z,141.30
2022-12-14T18:55:50.509Z,148.60
2022-12-14T18:58:24.273Z,148.40
2022-12-14T19:00:59.000Z,146.00
2022-12-14T19:03:34.327Z,151.20
2022-12-14T19:06:42.449Z,152.90
2022-12-14T19:09:00.536Z,148.00
2022-12-14T19:11:35.361Z,161.30
2022-12-14T19:14:07.231Z,152.10
2022-12-14T19:16:39.624Z,157.30
2022-12-14T19:19:11.563Z,142.30
2022-12-14T19:21:43.539Z,151.80
2022-12-14T19:24:15.551Z,156.10
2022-12-14T19:26:49.490Z,152.20
2022-12-14T19:29:21.694Z,150.20
2022-12-14T19:31:54.577Z,151.00
2022-12-14T19:34:28.273Z,157.90
2022-12-14T19:37:00.381Z,164.50
2022-12-14T19:39:32.141Z,154.60
2022-12-14T19:42:04.085Z,146.20
2022-12-14T19:44:36.877Z,137.40
2022-12-14T19:47:12.035Z,154.90
2022-12-14T19:49:44.973Z,142.50
2022-12-14T19:52:17.164Z,151.50
2022-12-14T19:54:48.882Z,168.60
2022-12-14T19:57:21.383Z,116.70
2022-12-14T19:59:57.186Z,149.60
2022-12-14T20:02:29.829Z,137.60
2022-12-14T20:05:02.581Z,142.70
2022-12-14T20:07:38.757Z,157.50
2022-12-14T20:10:13.888Z,148.30
2022-12-14T20:12:45.801Z,144.20
2022-12-14T20:15:17.805Z,140.70
2022-12-14T20:17:49.816Z,136.80
2022-12-14T20:20:23.081Z,148.20
2022-12-14T20:22:55.035Z,143.50
2022-12-14T20:25:26.954Z,138.90
2022-12-14T20:27:59.025Z,135.40
2022-12-14T20:30:31.625Z,103.70
2022-12-14T20:33:03.575Z,155.10
2022-12-14T20:35:35.901Z,142.40
2022-12-14T20:38:08.278Z,145.50
2022-12-14T20:40:40.136Z,154.80
2022-12-14T20:43:12.239Z,150.70
2022-12-14T20:45:44.965Z,144.00
2022-12-14T20:48:16.805Z,154.10
2022-12-14T20:50:49.875Z,148.40
2022-12-14T20:53:23.406Z,133.80
2022-12-14T20:55:55.163Z,143.20
2022-12-14T20:58:26.890Z,138.60
2022-12-14T21:01:05.843Z,144.60
2022-12-14T21:03:38.045Z,140.80
2022-12-14T21:06:11.842Z,145.00
2022-12-14T21:09:01.660Z,150.50
2022-12-14T21:11:51.983Z,142.60
2022-12-14T21:14:25.732Z,137.50
2022-12-14T21:16:57.974Z,141.00
2022-12-14T21:19:30.459Z,146.60
2022-12-14T21:22:02.403Z,148.50
2022-12-14T21:27:31.041Z,154.60
2022-12-14T21:30:03.386Z,147.60
2022-12-14T21:32:37.959Z,144.10
2022-12-14T21:35:10.845Z,145.90
2022-12-14T21:37:43.425Z,146.80
2022-12-14T21:40:35.835Z,149.90
2022-12-14T21:43:08.196Z,148.80
2022-12-14T21:45:44.062Z,151.50
2022-12-14T21:48:17.765Z,148.30
2022-12-14T21:50:51.357Z,155.20
2022-12-14T21:53:23.215Z,148.10
2022-12-14T21:56:15.390Z,142.90
2022-12-14T21:58:54.037Z,104.80
2022-12-14T22:01:26.693Z,146.40
2022-12-14T22:03:58.710Z,165.80
2022-12-14T22:06:30.668Z,161.50
2022-12-14T22:09:04.643Z,145.00
2022-12-14T22:11:36.777Z,166.10
2022-12-14T22:14:08.665Z,161.00
2022-12-14T22:16:41.352Z,123.00
2022-12-14T22:19:16.740Z,155.00
2022-12-14T22:21:49.591Z,156.40
2022-12-14T22:24:23.458Z,164.70
2022-12-14T22:26:55.733Z,153.60
2022-12-14T22:29:27.672Z,152.20
2022-12-14T22:32:02.666Z,120.10
2022-12-14T22:34:34.993Z,164.80
2022-12-14T22:37:08.000Z,154.60
2022-12-14T22:39:40.797Z,162.40
2022-12-14T22:42:13.753Z,165.20
2022-12-14T22:44:46.275Z,165.20
2022-12-14T22:47:21.556Z,158.40
2022-12-14T22:49:53.458Z,177.10
2022-12-14T22:52:25.263Z,168.40
2022-12-14T22:54:57.224Z,185.50
2022-12-14T22:57:30.595Z,128.20
2022-12-14T23:00:07.464Z,197.60
2022-12-14T23:02:43.084Z,191.90
2022-12-14T23:05:19.868Z,207.40
2022-12-14T23:07:53.337Z,204.20
2022-12-14T23:10:43.243Z,201.60
2022-12-14T23:13:33.333Z,210.20
2022-12-14T23:16:23.824Z,206.10
2022-12-14T23:19:13.435Z,200.50
2022-12-14T23:22:02.508Z,191.80
2022-12-14T23:24:52.540Z,197.50
2022-12-14T23:27:41.900Z,189.10
2022-12-14T23:30:32.219Z,192.90
2022-12-14T23:33:21.425Z,186.50
2022-12-14T23:36:10.833Z,189.40
2022-12-14T23:38:59.928Z,179.90
2022-12-14T23:41:49.827Z,162.20
2022-12-14T23:44:39.440Z,162.20
2022-12-14T23:47:29.093Z,183.00
2022-12-14T23:50:19.721Z,174.70
2022-12-14T23:53:09.558Z,177.70
2022-12-14T23:55:59.792Z,175.90
2022-12-14T23:58:51.817Z,173.80
